Honolulu, HI (96815)

4:38 PM HST on December 27, 2014 (GMT -1000)
Wa'ahila Ridge | Change Station
CLOSE
Current Station
Personal Weather Station
Location: Honolulu, HI
Elevation: 732 ft
Nearby Weather Stations

Elev 732 ft 21.30 °N, 157.80 °W | Updated 13 seconds ago

Scattered Clouds
Scattered Clouds
72.1 °F
Feels Like 76 °F
N
0.0
Wind Variable Wind from NNW
Gusts 8.0 mph

Today
High -- | Low -- °F
--% Chance of Precip.
Yesterday
High -- | Low -- °F
Precip. -- in
7:07 AM 5:57 PM
Waxing Crescent, 42% visible
Pressure 29.84 in
Visibility 10.0 miles
Clouds Few 2800 ft
Scattered Clouds 3900 ft
Heat Index 76 °F
Dew Point 56 °F
Humidity 57%
Rainfall 0.00 in
Snow Depth Not available.
UV 2 out of 12
Pollen Not available.
Air Quality Not available.
Flu Activity Not available.
METAR PHNL 280153Z 33016G25KT 10SM FEW028 SCT039 25/12 A2984 RMK AO2 SLP104 T02500122

More Conditions Fewer Conditions

Pressure 29.84 in
Visibility 10.0 miles
Clouds Few 2800 ft
Scattered Clouds 3900 ft
Heat Index 76 °F
Dew Point 56 °F
Humidity 57%
Rainfall 0.00 in
Snow Depth Not available.
UV 2 out of 12
Pollen Not available.
Air Quality Not available.
Flu Activity Not available.
METAR PHNL 280153Z 33016G25KT 10SM FEW028 SCT039 25/12 A2984 RMK AO2 SLP104 T02500122

More Conditions Fewer Conditions

10-Day Weather Forecast

Almanac

Astronomy

Dec. 27, 2014 Rise Set
Actual Time
Civil Twilight
Nautical Twilight
Astronomical Twilight
Moon
Length of Visible Light
Length of Day
Tomorrow will be .
, % of the Moon is Illuminated

Today's Extremes

State Highs State Lows

Community

WunderPhotos

Upload Photos

1,781,143 photos uploaded!

WunderBlogs® & News

Nearby

Air Quality

  Air Quality AQ Index Pollutant
Not available.

Snow Depth

Station Depth Elevation

Earthquake Activity

City Distance Mag. Time & Date
Minimum magnitude displayed is 2.5.

Coastal Water Temperatures

Place Temperature

Nearby Weather Stations